Time;durP1;ratioP1;P1;durP2;ratioP2;P2;SDS_P1;SDS_P2;PMS_P1;PMS_P2;Temp;Humidity;BMP_temperature;BMP_pressure;BME280_temperature;BME280_humidity;BME280_pressure;Samples;Min_cycle;Max_cycle;Signal;HPM_P1;HPM_P2
2024/01/18 00:00:57;;;;;;;35.20;22.10;;;;;;;0.32;100.00;97711.13;105240;1259;69279;-60
2024/01/18 00:03:42;;;;;;;34.20;21.50;;;;;;;0.31;100.00;97707.07;105348;1256;73838;-60
2024/01/18 00:06:11;;;;;;;35.20;21.70;;;;;;;0.30;100.00;97711.91;105277;1257;80205;-61
2024/01/18 00:08:39;;;;;;;35.10;20.70;;;;;;;0.29;100.00;97714.16;105409;1259;72814;-61
2024/01/18 00:11:07;;;;;;;33.60;22.80;;;;;;;0.31;100.00;97715.13;105320;1259;69125;-61
2024/01/18 00:13:35;;;;;;;36.50;21.90;;;;;;;0.32;100.00;97716.95;105434;1258;69187;-61
2024/01/18 00:16:04;;;;;;;33.10;20.50;;;;;;;0.33;100.00;97715.20;105247;1257;74938;-61
2024/01/18 00:18:32;;;;;;;35.10;20.90;;;;;;;0.36;100.00;97715.63;105273;1260;81943;-61
2024/01/18 00:21:00;;;;;;;33.80;20.10;;;;;;;0.37;100.00;97716.11;105280;1257;72176;-61
2024/01/18 00:23:29;;;;;;;34.90;21.30;;;;;;;0.37;100.00;97716.45;105333;1257;69148;-61
2024/01/18 00:25:57;;;;;;;31.20;20.80;;;;;;;0.36;100.00;97721.44;105333;1259;69202;-61
2024/01/18 00:28:25;;;;;;;36.40;21.90;;;;;;;0.37;100.00;97720.23;105293;1257;74429;-61
2024/01/18 00:30:53;;;;;;;32.90;19.90;;;;;;;0.36;100.00;97717.67;105298;1258;83446;-61
2024/01/18 00:33:22;;;;;;;39.10;23.50;;;;;;;0.35;100.00;97725.97;105255;1257;72002;-61
2024/01/18 00:35:50;;;;;;;36.60;21.60;;;;;;;0.34;100.00;97733.72;105312;1259;69124;-61
2024/01/18 00:38:19;;;;;;;33.20;19.90;;;;;;;0.34;100.00;97740.77;105257;1255;69300;-61
2024/01/18 00:40:47;;;;;;;34.50;20.50;;;;;;;0.34;100.00;97752.97;105276;1257;73991;-61
2024/01/18 00:43:15;;;;;;;33.00;19.80;;;;;;;0.35;100.00;97757.92;105283;1259;81441;-61
2024/01/18 00:45:43;;;;;;;33.00;20.20;;;;;;;0.34;100.00;97763.94;105272;1257;70281;-61
2024/01/18 00:48:12;;;;;;;30.50;20.00;;;;;;;0.34;100.00;97768.59;105353;1259;69141;-61
2024/01/18 00:50:40;;;;;;;31.30;19.30;;;;;;;0.34;100.00;97772.02;105449;1259;69215;-61
2024/01/18 00:53:08;;;;;;;35.10;20.50;;;;;;;0.34;100.00;97770.14;105308;1257;74026;-61
2024/01/18 00:55:37;;;;;;;37.60;21.60;;;;;;;0.36;100.00;97774.55;105249;1259;82152;-61
2024/01/18 00:58:05;;;;;;;35.30;21.10;;;;;;;0.37;100.00;97772.61;105290;1259;71939;-62
2024/01/18 01:00:33;;;;;;;37.60;21.80;;;;;;;0.35;100.00;97774.04;105315;1259;69250;-62
2024/01/18 01:03:02;;;;;;;51.40;28.60;;;;;;;0.33;100.00;97779.98;105339;1257;69183;-61
2024/01/18 01:05:30;;;;;;;48.00;26.30;;;;;;;0.31;100.00;97787.11;105300;1258;75531;-61
2024/01/18 01:07:58;;;;;;;42.40;24.30;;;;;;;0.30;100.00;97794.34;105276;1259;80563;-59
2024/01/18 01:10:27;;;;;;;34.60;20.90;;;;;;;0.29;100.00;97797.30;105307;1259;72337;-58
2024/01/18 01:12:55;;;;;;;33.00;19.30;;;;;;;0.29;100.00;97802.10;105268;1257;69116;-59
2024/01/18 01:15:23;;;;;;;31.20;20.00;;;;;;;0.29;100.00;97798.15;105297;1259;69135;-59
2024/01/18 01:17:51;;;;;;;46.90;25.70;;;;;;;0.29;100.00;97797.46;105298;1257;73765;-58
2024/01/18 01:20:20;;;;;;;42.30;25.10;;;;;;;0.29;100.00;97804.85;105259;1259;81424;-58
2024/01/18 01:22:48;;;;;;;39.90;23.10;;;;;;;0.30;100.00;97803.96;105262;1257;72224;-58
2024/01/18 01:25:16;;;;;;;38.70;22.00;;;;;;;0.32;100.00;97802.67;105237;1259;69705;-58
2024/01/18 01:27:45;;;;;;;33.30;20.30;;;;;;;0.34;100.00;97808.46;105317;1259;69147;-58
2024/01/18 01:30:13;;;;;;;33.10;20.10;;;;;;;0.35;100.00;97815.95;105277;1259;72865;-58
2024/01/18 01:32:41;;;;;;;38.00;20.90;;;;;;;0.36;100.00;97813.20;105244;1260;81925;-59
2024/01/18 01:35:11;;;;;;;40.20;23.60;;;;;;;0.35;100.00;97809.77;105293;1259;71637;-59
2024/01/18 01:37:39;;;;;;;35.60;21.60;;;;;;;0.36;100.00;97811.13;105253;1257;69090;-59
2024/01/18 01:40:08;;;;;;;37.50;23.40;;;;;;;0.37;100.00;97809.90;105373;1257;69068;-59
2024/01/18 01:42:36;;;;;;;41.00;24.20;;;;;;;0.36;100.00;97818.16;105316;1257;73773;-60
2024/01/18 01:45:05;;;;;;;39.70;24.60;;;;;;;0.34;100.00;97821.49;105388;1260;81112;-61
2024/01/18 01:47:33;;;;;;;41.20;23.60;;;;;;;0.31;100.00;97819.21;105390;1257;70528;-62
2024/01/18 01:50:01;;;;;;;43.70;25.80;;;;;;;0.31;100.00;97819.38;105248;1259;69081;-60
2024/01/18 01:52:31;;;;;;;45.80;28.30;;;;;;;0.32;100.00;97824.68;105193;1257;69182;-60
2024/01/18 01:54:59;;;;;;;41.40;25.50;;;;;;;0.32;100.00;97827.55;105289;1259;74015;-59
2024/01/18 01:57:28;;;;;;;43.90;26.50;;;;;;;0.33;100.00;97824.81;105310;1259;82935;-60
2024/01/18 01:59:57;;;;;;;41.90;25.90;;;;;;;0.33;100.00;97828.91;105442;1259;71696;-59
2024/01/18 02:02:25;;;;;;;39.20;24.20;;;;;;;0.32;100.00;97832.76;105448;1257;69080;-59
2024/01/18 02:04:54;;;;;;;45.70;26.10;;;;;;;0.31;100.00;97828.65;105385;1257;69275;-59
2024/01/18 02:07:25;;;;;;;41.80;26.00;;;;;;;0.31;100.00;97835.86;105366;1257;74493;-59
2024/01/18 02:09:53;;;;;;;46.30;26.10;;;;;;;0.33;100.00;97844.90;105303;1259;81714;-60
2024/01/18 02:12:23;;;;;;;47.20;28.70;;;;;;;0.34;100.00;97840.59;105250;1257;72285;-60
2024/01/18 02:14:51;;;;;;;50.20;31.10;;;;;;;0.33;100.00;97853.31;105282;1257;69208;-60
2024/01/18 02:17:20;;;;;;;60.90;35.40;;;;;;;0.32;100.00;97854.40;105303;1258;69212;-59
2024/01/18 02:19:49;;;;;;;53.70;34.00;;;;;;;0.30;100.00;97861.83;105167;1260;74154;-60
2024/01/18 02:22:20;;;;;;;51.00;32.70;;;;;;;0.28;100.00;97866.38;105299;1260;81478;-59
2024/01/18 02:24:51;;;;;;;;;;;;;;;0.27;100.00;97874.69;105298;1258;72829;-60
2024/01/18 02:27:20;;;;;;;46.70;26.70;;;;;;;0.25;100.00;97874.05;105293;1259;69115;-60
2024/01/18 02:29:48;;;;;;;42.00;24.90;;;;;;;0.22;100.00;97868.99;105354;1260;69338;-60
2024/01/18 02:32:16;;;;;;;46.10;27.00;;;;;;;0.21;100.00;97869.05;105299;1257;73748;-59
2024/01/18 02:34:44;;;;;;;44.90;26.00;;;;;;;0.18;100.00;97867.58;105239;1257;81951;-59
2024/01/18 02:37:12;;;;;;;47.20;28.20;;;;;;;0.17;100.00;97869.88;105305;1260;72013;-59
2024/01/18 02:39:41;;;;;;;42.60;26.00;;;;;;;0.15;100.00;97867.19;105143;1257;70794;-60
2024/01/18 02:42:09;;;;;;;42.70;25.20;;;;;;;0.13;100.00;97871.55;105320;1259;69185;-59
2024/01/18 02:44:38;;;;;;;44.80;26.20;;;;;;;0.10;100.00;97869.09;105285;1257;73783;-59
2024/01/18 02:47:06;;;;;;;44.90;26.20;;;;;;;0.07;100.00;97866.27;105334;1259;81817;-60
2024/01/18 02:49:37;;;;;;;43.50;25.20;;;;;;;0.05;100.00;97870.64;105261;1259;72021;-59
2024/01/18 02:52:06;;;;;;;40.90;25.40;;;;;;;0.06;100.00;97874.06;105307;1260;69135;-61
2024/01/18 02:54:34;;;;;;;41.10;24.80;;;;;;;0.03;100.00;97873.95;105335;1260;69180;-63
2024/01/18 02:57:02;;;;;;;42.60;25.40;;;;;;;0.00;100.00;97878.19;105249;1259;74886;-64
2024/01/18 02:59:30;;;;;;;41.60;25.30;;;;;;;-0.01;100.00;97881.65;105235;1259;81564;-60
2024/01/18 03:01:59;;;;;;;44.10;25.70;;;;;;;-0.03;100.00;97888.75;105284;1259;71817;-60
2024/01/18 03:04:27;;;;;;;40.40;25.50;;;;;;;-0.06;100.00;97883.36;105394;1260;69726;-60
2024/01/18 03:06:55;;;;;;;40.80;25.60;;;;;;;-0.07;100.00;97883.73;105260;1257;69011;-59
2024/01/18 03:09:23;;;;;;;44.90;26.10;;;;;;;-0.08;100.00;97886.72;105289;1258;73582;-60
2024/01/18 03:11:51;;;;;;;42.20;25.30;;;;;;;-0.10;100.00;97896.04;105356;1259;82766;-59
2024/01/18 03:14:20;;;;;;;44.80;27.00;;;;;;;-0.12;100.00;97904.50;105316;1257;72014;-59
2024/01/18 03:16:48;;;;;;;52.30;32.30;;;;;;;-0.13;100.00;97911.59;105385;1260;69144;-60
2024/01/18 03:19:17;;;;;;;56.90;33.90;;;;;;;-0.14;100.00;97919.02;105318;1259;69196;-60
2024/01/18 03:21:45;;;;;;;53.70;31.60;;;;;;;-0.15;100.00;97921.63;105468;1258;73779;-58
2024/01/18 03:24:13;;;;;;;54.00;31.10;;;;;;;-0.17;100.00;97930.27;105257;1261;82139;-59
2024/01/18 03:26:42;;;;;;;52.40;30.70;;;;;;;-0.18;100.00;97932.70;105244;1257;71850;-59
2024/01/18 03:29:10;;;;;;;47.00;28.00;;;;;;;-0.20;100.00;97938.41;105467;1260;69110;-59
2024/01/18 03:31:39;;;;;;;48.30;30.40;;;;;;;-0.22;100.00;97941.25;105294;1259;69230;-59
2024/01/18 03:34:07;;;;;;;48.40;28.90;;;;;;;-0.24;100.00;97943.38;105298;1259;74033;-59
2024/01/18 03:36:35;;;;;;;49.50;29.80;;;;;;;-0.26;100.00;97946.84;105359;1260;82473;-59
2024/01/18 03:39:06;;;;;;;51.30;30.80;;;;;;;-0.26;100.00;97949.08;105291;1267;71812;-59
2024/01/18 03:41:34;;;;;;;54.50;31.80;;;;;;;-0.28;100.00;97950.88;105347;1261;69233;-59
2024/01/18 03:44:02;;;;;;;57.60;32.30;;;;;;;-0.30;100.00;97954.54;105291;1260;69148;-59
2024/01/18 03:46:30;;;;;;;55.00;32.10;;;;;;;-0.32;100.00;97958.88;105289;1259;72765;-59
2024/01/18 03:48:58;;;;;;;52.10;30.30;;;;;;;-0.34;100.00;97959.46;105315;1257;82237;-59
2024/01/18 03:51:27;;;;;;;59.60;33.00;;;;;;;-0.36;100.00;97964.02;105284;1260;71881;-59
2024/01/18 03:53:55;;;;;;;54.30;31.10;;;;;;;-0.39;100.00;97970.44;105286;1255;69208;-60
2024/01/18 03:56:24;;;;;;;60.20;33.80;;;;;;;-0.40;100.00;97974.09;105362;1260;69215;-59
2024/01/18 03:58:52;;;;;;;55.00;31.90;;;;;;;-0.41;100.00;97974.47;105310;1258;73997;-59
2024/01/18 04:01:20;;;;;;;54.90;32.20;;;;;;;-0.43;100.00;97980.01;105252;1259;81619;-59
2024/01/18 04:03:48;;;;;;;51.60;30.40;;;;;;;-0.44;100.00;97980.73;105246;1260;71694;-59
2024/01/18 04:06:17;;;;;;;55.70;32.20;;;;;;;-0.44;100.00;97987.09;105315;1259;69098;-59
2024/01/18 04:08:45;;;;;;;54.30;31.50;;;;;;;-0.44;100.00;97992.21;105266;1257;69170;-59
2024/01/18 04:11:14;;;;;;;55.00;32.00;;;;;;;-0.47;100.00;98000.02;105259;1258;73948;-59
2024/01/18 04:13:42;;;;;;;55.10;31.00;;;;;;;-0.48;100.00;97997.99;105293;1259;81366;-59
2024/01/18 04:16:11;;;;;;;54.90;31.10;;;;;;;-0.50;100.00;98003.90;105253;1260;70655;-59
2024/01/18 04:18:39;;;;;;;52.40;30.80;;;;;;;-0.51;100.00;98005.83;105342;1255;69134;-60
2024/01/18 04:21:07;;;;;;;50.00;29.20;;;;;;;-0.52;100.00;98008.09;105295;1259;69170;-59
2024/01/18 04:23:36;;;;;;;51.60;27.30;;;;;;;-0.53;100.00;98011.18;105350;1257;72268;-59
2024/01/18 04:26:04;;;;;;;45.10;26.60;;;;;;;-0.56;100.00;98013.52;105420;1260;82782;-59
2024/01/18 04:28:32;;;;;;;46.40;26.20;;;;;;;-0.59;100.00;98014.48;105277;1260;71370;-59
2024/01/18 04:31:00;;;;;;;46.50;26.90;;;;;;;-0.60;100.00;98020.35;105296;1266;69100;-59
2024/01/18 04:33:29;;;;;;;45.50;26.80;;;;;;;-0.62;100.00;98031.38;105288;1260;69160;-59
2024/01/18 04:35:57;;;;;;;46.70;26.70;;;;;;;-0.64;100.00;98039.14;105387;1259;74130;-59
2024/01/18 04:38:26;;;;;;;50.30;28.70;;;;;;;-0.63;100.00;98043.42;105318;1261;82097;-59
2024/01/18 04:40:54;;;;;;;52.80;28.40;;;;;;;-0.63;100.00;98050.80;105324;1259;71901;-59
2024/01/18 04:43:23;;;;;;;47.40;27.90;;;;;;;-0.67;100.00;98053.98;105292;1269;69218;-59
2024/01/18 04:45:52;;;;;;;48.90;28.00;;;;;;;-0.71;100.00;98057.34;105314;1255;69196;-59
2024/01/18 04:48:20;;;;;;;47.40;27.50;;;;;;;-0.73;100.00;98056.73;105259;1260;75012;-59
2024/01/18 04:50:48;;;;;;;50.00;29.10;;;;;;;-0.74;100.00;98056.95;105354;1268;82866;-60
2024/01/18 04:53:16;;;;;;;49.90;29.50;;;;;;;-0.77;100.00;98061.98;105339;1259;70428;-60
2024/01/18 04:55:45;;;;;;;55.20;31.50;;;;;;;-0.80;100.00;98069.64;105317;1260;69157;-61
2024/01/18 04:58:13;;;;;;;56.80;32.10;;;;;;;-0.85;100.00;98073.38;105458;1257;69192;-60
2024/01/18 05:00:42;;;;;;;54.00;29.90;;;;;;;-0.85;100.00;98074.58;105339;1257;73904;-59
2024/01/18 05:03:10;;;;;;;53.50;30.80;;;;;;;-0.88;100.00;98076.38;105347;1259;82100;-59
2024/01/18 05:05:39;;;;;;;56.40;32.50;;;;;;;-0.90;100.00;98078.81;105368;1256;71660;-58
2024/01/18 05:08:07;;;;;;;59.10;31.90;;;;;;;-0.92;100.00;98084.86;105151;1260;69215;-59
2024/01/18 05:10:35;;;;;;;63.70;34.80;;;;;;;-0.92;100.00;98093.45;105282;1268;69220;-59
2024/01/18 05:13:03;;;;;;;63.90;44.80;;;;;;;-0.94;100.00;98095.41;105319;1258;74004;-59
2024/01/18 05:15:32;;;;;;;64.30;34.60;;;;;;;-0.95;100.00;98102.42;105370;1267;82113;-59
2024/01/18 05:18:01;;;;;;;58.70;34.20;;;;;;;-0.94;100.00;98112.37;105265;1260;71772;-59
2024/01/18 05:20:29;;;;;;;60.00;33.80;;;;;;;-0.92;100.00;98117.60;105337;1261;69141;-59
2024/01/18 05:22:57;;;;;;;61.60;32.60;;;;;;;-0.89;100.00;98124.59;105258;1257;69115;-59
2024/01/18 05:25:26;;;;;;;63.90;34.60;;;;;;;-0.87;100.00;98132.05;105319;1257;74842;-59
2024/01/18 05:27:55;;;;;;;59.40;33.10;;;;;;;-0.86;100.00;98132.21;105457;1260;81862;-59
2024/01/18 05:30:23;;;;;;;61.10;34.40;;;;;;;-0.86;100.00;98138.52;105346;1260;73157;-59
2024/01/18 05:32:52;;;;;;;61.90;33.30;;;;;;;-0.88;100.00;98144.10;105220;1262;69136;-59
2024/01/18 05:35:20;;;;;;;61.10;34.30;;;;;;;-0.90;100.00;98149.59;105281;1260;69202;-59
2024/01/18 05:37:49;;;;;;;65.90;36.70;;;;;;;-0.87;100.00;98154.17;105352;1258;73774;-60
2024/01/18 05:40:21;;;;;;;66.90;36.50;;;;;;;-0.86;100.00;98159.11;105284;1257;81383;-61
2024/01/18 05:42:49;;;;;;;70.30;39.30;;;;;;;-0.85;100.00;98160.80;105435;1259;70346;-61
2024/01/18 05:45:18;;;;;;;86.30;45.70;;;;;;;-0.84;100.00;98165.59;105338;1260;69212;-61
2024/01/18 05:47:46;;;;;;;76.00;40.00;;;;;;;-0.87;100.00;98172.19;105330;1260;69153;-61
2024/01/18 05:50:15;;;;;;;80.20;41.60;;;;;;;-0.90;100.00;98179.27;105438;1260;73577;-61
2024/01/18 05:52:43;;;;;;;79.20;42.20;;;;;;;-0.91;100.00;98183.42;105264;1260;83498;-61
2024/01/18 05:55:11;;;;;;;71.80;37.80;;;;;;;-0.94;100.00;98187.45;105376;1258;72291;-61
2024/01/18 05:57:39;;;;;;;63.10;35.60;;;;;;;-0.96;100.00;98196.59;105293;1260;69182;-61
2024/01/18 06:00:08;;;;;;;61.80;34.60;;;;;;;-0.98;100.00;98200.21;105311;1259;69135;-61
2024/01/18 06:02:37;;;;;;;57.90;34.40;;;;;;;-0.99;100.00;98205.41;105341;1257;75056;-61
2024/01/18 06:05:06;;;;;;;65.00;35.40;;;;;;;-0.97;100.00;98209.47;105309;1260;83366;-61
2024/01/18 06:07:39;;;;;;;69.20;36.50;;;;;;;-0.97;100.00;98215.80;105325;1257;73195;-61
2024/01/18 06:10:08;;;;;;;69.50;39.20;;;;;;;-0.99;100.00;98218.08;105312;1260;69105;-60
2024/01/18 06:12:37;;;;;;;79.60;39.50;;;;;;;-1.00;100.00;98221.38;105535;1257;69181;-61
2024/01/18 06:15:06;;;;;;;66.20;34.60;;;;;;;-1.03;100.00;98223.86;105493;1259;74675;-60
2024/01/18 06:17:34;;;;;;;61.20;35.10;;;;;;;-1.07;100.00;98224.98;105277;1259;82834;-61
2024/01/18 06:20:02;;;;;;;60.40;33.60;;;;;;;-1.09;100.00;98227.95;105216;1258;73004;-61
2024/01/18 06:22:31;;;;;;;64.40;34.90;;;;;;;-1.10;100.00;98234.14;105203;1260;69131;-60
2024/01/18 06:24:59;;;;;;;62.70;33.80;;;;;;;-1.11;100.00;98239.47;105253;1258;69131;-60
2024/01/18 06:27:27;;;;;;;60.70;32.90;;;;;;;-1.14;100.00;98242.98;105380;1257;74059;-61
2024/01/18 06:29:57;;;;;;;58.60;32.60;;;;;;;-1.15;100.00;98245.39;105362;1259;81494;-60
2024/01/18 06:32:25;;;;;;;54.90;31.90;;;;;;;-1.16;100.00;98252.44;105304;1260;70624;-61
2024/01/18 06:34:54;;;;;;;55.10;30.40;;;;;;;-1.14;100.00;98253.78;105311;1258;69281;-60
2024/01/18 06:37:22;;;;;;;51.40;30.40;;;;;;;-1.14;100.00;98253.08;105324;1255;69291;-60
2024/01/18 06:39:52;;;;;;;57.00;30.70;;;;;;;-1.14;100.00;98258.58;105657;1260;72889;-61
2024/01/18 06:42:20;;;;;;;54.20;31.70;;;;;;;-1.15;100.00;98263.91;105523;1260;82938;-61
2024/01/18 06:44:48;;;;;;;53.60;30.60;;;;;;;-1.18;100.00;98259.67;105354;1257;73187;-61
2024/01/18 06:47:16;;;;;;;53.20;31.00;;;;;;;-1.18;100.00;98251.48;105303;1258;69232;-60
2024/01/18 06:49:45;;;;;;;67.10;39.70;;;;;;;-1.19;100.00;98248.75;105377;1260;69090;-62
2024/01/18 06:52:14;;;;;;;61.10;37.70;;;;;;;-1.20;100.00;98255.77;105650;1257;73752;-62
2024/01/18 06:54:43;;;;;;;54.20;31.20;;;;;;;-1.20;100.00;98256.83;105414;1259;81659;-61
2024/01/18 06:57:12;;;;;;;50.50;30.10;;;;;;;-1.19;100.00;98256.63;105455;1259;72904;-62
2024/01/18 06:59:45;;;;;;;51.90;29.40;;;;;;;-1.19;100.00;98256.63;105530;1259;69147;-62
2024/01/18 07:02:14;;;;;;;50.80;29.70;;;;;;;-1.18;100.00;98256.26;105409;1255;69090;-63
2024/01/18 07:04:42;;;;;;;53.50;30.20;;;;;;;-1.19;100.00;98262.63;105309;1260;73713;-62
2024/01/18 07:07:11;;;;;;;51.00;27.60;;;;;;;-1.19;100.00;98262.12;105443;1257;81278;-62
2024/01/18 07:09:39;;;;;;;51.70;29.20;;;;;;;-1.18;100.00;98263.98;105359;1260;70463;-60
2024/01/18 07:12:09;;;;;;;50.90;27.30;;;;;;;-1.17;100.00;98267.36;105476;1261;69109;-62
2024/01/18 07:14:39;;;;;;;43.10;24.40;;;;;;;-1.18;100.00;98274.24;105407;1257;69173;-62
2024/01/18 07:17:07;;;;;;;45.20;24.60;;;;;;;-1.18;100.00;98275.29;105445;1258;73964;-61
2024/01/18 07:19:35;;;;;;;41.10;22.50;;;;;;;-1.16;100.00;98271.48;105405;1258;81320;-61
2024/01/18 07:22:07;;;;;;;43.50;24.20;;;;;;;-1.14;100.00;98272.45;105427;1260;72172;-63
2024/01/18 07:24:36;;;;;;;45.70;26.50;;;;;;;-1.14;100.00;98277.23;105341;1260;69144;-65
2024/01/18 07:27:09;;;;;;;71.80;42.10;;;;;;;-1.13;100.00;98292.16;105432;1257;69179;-65
2024/01/18 07:29:37;;;;;;;51.90;30.90;;;;;;;-1.14;100.00;98308.61;105662;1258;73721;-65
2024/01/18 07:32:06;;;;;;;43.40;25.00;;;;;;;-1.17;100.00;98321.35;105707;1260;81598;-62
2024/01/18 07:34:35;;;;;;;40.20;22.70;;;;;;;-1.18;100.00;98324.81;105461;1261;71694;-64
2024/01/18 07:37:03;;;;;;;44.30;24.60;;;;;;;-1.22;100.00;98327.64;105492;1257;69154;-59
2024/01/18 07:39:35;;;;;;;45.40;23.40;;;;;;;-1.24;100.00;98322.54;105457;1259;69199;-65
2024/01/18 07:42:04;;;;;;;39.40;23.00;;;;;;;-1.24;100.00;98316.40;105487;1258;73516;-65
2024/01/18 07:44:32;;;;;;;46.50;25.70;;;;;;;-1.22;100.00;98312.74;105418;1257;83426;-66
2024/01/18 07:47:00;;;;;;;48.00;26.20;;;;;;;-1.20;100.00;98315.26;105357;1257;72657;-59
2024/01/18 07:49:28;;;;;;;47.00;28.40;;;;;;;-1.17;100.00;98313.65;105424;1257;69173;-60
2024/01/18 07:51:57;;;;;;;46.80;27.00;;;;;;;-1.15;100.00;98304.68;105406;1260;69155;-60
2024/01/18 07:54:27;;;;;;;49.50;28.20;;;;;;;-1.11;100.00;98296.37;105355;1258;74033;-60
2024/01/18 07:56:55;;;;;;;56.60;29.90;;;;;;;-1.08;100.00;98295.80;105419;1260;82976;-60
2024/01/18 07:59:23;;;;;;;76.10;40.70;;;;;;;-1.07;100.00;98295.78;105376;1257;71644;-60
2024/01/18 08:01:51;;;;;;;60.00;33.50;;;;;;;-1.04;100.00;98301.85;105371;1260;69070;-60
2024/01/18 08:04:19;;;;;;;43.40;25.40;;;;;;;-0.99;100.00;98303.12;105332;1260;69119;-60
2024/01/18 08:06:48;;;;;;;43.60;25.10;;;;;;;-0.95;100.00;98304.91;105376;1258;73637;-60
2024/01/18 08:09:16;;;;;;;39.90;24.70;;;;;;;-0.92;100.00;98313.39;105597;1257;83068;-59
2024/01/18 08:11:45;;;;;;;40.90;23.20;;;;;;;-0.89;100.00;98328.24;105516;1260;71832;-59
2024/01/18 08:14:14;;;;;;;45.70;25.30;;;;;;;-0.88;100.00;98330.63;105574;1255;69189;-60
2024/01/18 08:16:45;;;;;;;41.30;24.40;;;;;;;-0.87;100.00;98332.98;105475;1257;69085;-59
2024/01/18 08:19:13;;;;;;;40.20;24.10;;;;;;;-0.87;100.00;98332.14;105399;1258;74995;-60
2024/01/18 08:21:43;;;;;;;37.80;22.80;;;;;;;-0.87;100.00;98334.54;105349;1260;81660;-60
2024/01/18 08:24:12;;;;;;;44.70;24.70;;;;;;;-0.89;100.00;98341.98;105251;1257;71588;-59
2024/01/18 08:26:40;;;;;;;56.70;29.20;;;;;;;-0.88;100.00;98352.08;105269;1257;69084;-60
2024/01/18 08:29:09;;;;;;;61.20;30.50;;;;;;;-0.87;100.00;98357.02;105665;1257;69119;-60
2024/01/18 08:31:37;;;;;;;50.50;27.80;;;;;;;-0.86;100.00;98358.87;105366;1257;73076;-59
2024/01/18 08:34:07;;;;;;;45.30;24.50;;;;;;;-0.84;100.00;98360.71;105551;1259;82238;-59
2024/01/18 08:36:36;;;;;;;38.80;20.60;;;;;;;-0.84;100.00;98362.42;105632;1256;73658;-58
2024/01/18 08:39:05;;;;;;;34.70;21.40;;;;;;;-0.88;100.00;98364.08;105654;1260;69102;-59
2024/01/18 08:41:33;;;;;;;37.90;20.80;;;;;;;-0.88;100.00;98366.12;105467;1258;69529;-59
2024/01/18 08:44:02;;;;;;;32.10;19.00;;;;;;;-0.89;100.00;98362.37;105672;1259;74127;-60
2024/01/18 08:46:30;;;;;;;35.60;21.70;;;;;;;-0.89;100.00;98367.34;105421;1257;81261;-59
2024/01/18 08:48:59;;;;;;;34.90;20.90;;;;;;;-0.89;100.00;98369.05;105326;1256;71822;-60
2024/01/18 08:51:27;;;;;;;43.40;23.30;;;;;;;-0.89;100.00;98374.87;105425;1260;69210;-60
2024/01/18 08:53:56;;;;;;;38.30;21.70;;;;;;;-0.93;100.00;98373.77;105475;1259;69195;-59
2024/01/18 08:56:24;;;;;;;40.30;21.90;;;;;;;-0.96;100.00;98368.36;105499;1260;73619;-60
2024/01/18 08:58:58;;;;;;;40.50;22.60;;;;;;;-0.97;100.00;98373.86;105401;1258;82613;-61
2024/01/18 09:01:27;;;;;;;42.70;23.40;;;;;;;-0.96;100.00;98375.74;105491;1257;71401;-65
2024/01/18 09:03:55;;;;;;;47.30;27.00;;;;;;;-0.95;100.00;98380.65;105340;1261;69138;-65
2024/01/18 09:06:24;;;;;;;56.70;29.90;;;;;;;-0.90;100.00;98394.45;105357;1260;69205;-61
2024/01/18 09:08:52;;;;;;;48.60;28.00;;;;;;;-0.89;100.00;98403.34;105373;1259;75016;-61
2024/01/18 09:11:21;;;;;;;57.90;33.10;;;;;;;-0.85;100.00;98420.58;105298;1256;81780;-60
2024/01/18 09:13:50;;;;;;;60.50;35.60;;;;;;;-0.84;100.00;98431.67;105374;1257;73044;-65
2024/01/18 09:16:19;;;;;;;56.10;34.70;;;;;;;-0.81;100.00;98439.36;105411;1258;69202;-65
2024/01/18 09:18:47;;;;;;;48.50;27.10;;;;;;;-0.79;100.00;98439.64;105364;1259;69225;-65
2024/01/18 09:21:43;;;;;;;42.50;22.80;;;;;;;-0.77;100.00;98432.21;105381;1257;75537;-65
2024/01/18 09:24:11;;;;;;;43.70;24.70;;;;;;;-0.73;100.00;98426.63;105425;1257;82115;-66
2024/01/18 09:26:39;;;;;;;40.00;21.90;;;;;;;-0.67;100.00;98422.40;105482;1257;72353;-66
2024/01/18 09:29:08;;;;;;;42.30;24.40;;;;;;;-0.60;100.00;98431.15;105460;1259;69118;-66
2024/01/18 09:31:36;;;;;;;41.60;25.70;;;;;;;-0.57;100.00;98440.51;105441;1259;69186;-65
2024/01/18 09:34:10;;;;;;;43.50;25.30;;;;;;;-0.53;100.00;98451.39;105459;1259;73239;-68
2024/01/18 09:36:39;;;;;;;36.70;22.30;;;;;;;-0.48;100.00;98445.77;105448;1257;81344;-67
2024/01/18 09:39:15;;;;;;;39.50;23.00;;;;;;;-0.45;100.00;98439.36;105460;1256;72132;-65
2024/01/18 09:41:53;;;;;;;40.00;23.50;;;;;;;-0.39;100.00;98432.89;105654;1257;69176;-64
2024/01/18 09:44:26;;;;;;;40.30;23.30;;;;;;;-0.33;100.00;98422.08;105394;1257;69179;-68
2024/01/18 09:46:54;;;;;;;34.00;20.80;;;;;;;-0.29;100.00;98422.16;105535;1259;73262;-65
2024/01/18 09:49:24;;;;;;;36.80;22.10;;;;;;;-0.25;100.00;98420.52;105464;1256;81040;-64
2024/01/18 09:51:52;;;;;;;42.00;22.40;;;;;;;-0.22;100.00;98417.18;105446;1259;73062;-63
2024/01/18 09:54:20;;;;;;;38.80;21.70;;;;;;;-0.21;100.00;98426.27;105638;1259;69107;-59
2024/01/18 09:56:52;;;;;;;38.80;24.00;;;;;;;-0.22;100.00;98425.25;105385;1257;69180;-60
2024/01/18 09:59:22;;;;;;;37.50;23.20;;;;;;;-0.19;100.00;98423.98;105595;1257;72850;-60
2024/01/18 10:01:50;;;;;;;35.00;21.20;;;;;;;-0.17;100.00;98422.21;105396;1259;81592;-60
2024/01/18 10:04:19;;;;;;;39.40;22.80;;;;;;;-0.16;100.00;98412.04;105657;1257;72144;-60
2024/01/18 10:06:48;;;;;;;40.10;23.10;;;;;;;-0.14;100.00;98418.86;105468;1257;69189;-60
2024/01/18 10:09:16;;;;;;;41.60;24.30;;;;;;;-0.14;100.00;98432.95;105226;1258;70396;-60
2024/01/18 10:11:46;;;;;;;47.00;26.00;;;;;;;-0.13;100.00;98435.67;105483;1256;73898;-59
2024/01/18 10:14:15;;;;;;;41.50;23.40;;;;;;;-0.14;100.00;98447.89;105652;1259;81382;-59
2024/01/18 10:16:43;;;;;;;38.70;23.40;;;;;;;-0.15;100.00;98456.83;105421;1258;70670;-59
2024/01/18 10:19:14;;;;;;;41.20;22.70;;;;;;;-0.16;100.00;98453.61;105364;1260;69195;-60
2024/01/18 10:21:46;;;;;;;38.70;23.00;;;;;;;-0.16;100.00;98450.52;105496;1257;69828;-60
2024/01/18 10:24:14;;;;;;;44.10;25.20;;;;;;;-0.18;100.00;98443.50;105438;1257;74811;-59
2024/01/18 10:26:43;;;;;;;35.80;22.50;;;;;;;-0.20;100.00;98426.05;105492;1257;81665;-59
2024/01/18 10:29:11;;;;;;;41.80;25.80;;;;;;;-0.24;100.00;98430.09;105353;1256;72761;-59
2024/01/18 10:31:41;;;;;;;42.20;23.50;;;;;;;-0.25;100.00;98435.95;105477;1256;69098;-59
2024/01/18 10:34:10;;;;;;;39.20;22.40;;;;;;;-0.24;100.00;98439.02;105501;1257;69068;-59
2024/01/18 10:36:39;;;;;;;42.70;24.20;;;;;;;-0.24;100.00;98444.50;105528;1257;73920;-61
2024/01/18 10:39:18;;;;;;;41.70;24.90;;;;;;;-0.27;100.00;98460.23;105382;1259;81764;-60
2024/01/18 10:41:47;;;;;;;38.90;25.10;;;;;;;-0.27;100.00;98470.87;105279;1257;191184;-60
2024/01/18 10:44:15;;;;;;;40.10;25.70;;;;;;;-0.30;100.00;98460.45;105368;1259;69074;-59
2024/01/18 10:46:45;;;;;;;46.30;28.00;;;;;;;-0.33;100.00;98443.54;105423;1256;69189;-59
2024/01/18 10:49:14;;;;;;;45.90;26.90;;;;;;;-0.34;100.00;98441.50;105407;1257;72807;-59
2024/01/18 10:51:42;;;;;;;36.80;22.80;;;;;;;-0.34;100.00;98450.26;105398;1257;82857;-58
2024/01/18 10:54:11;;;;;;;41.10;23.80;;;;;;;-0.32;100.00;98473.89;105512;1257;72200;-60
2024/01/18 10:56:57;;;;;;;45.70;25.30;;;;;;;-0.30;100.00;98486.03;105334;1257;69115;-59
2024/01/18 10:59:27;;;;;;;42.60;23.50;;;;;;;-0.28;100.00;98491.48;105495;1260;69491;-60
2024/01/18 11:01:59;;;;;;;;;;;;;;;-0.28;100.00;98496.27;105489;1255;73566;-60
2024/01/18 11:04:29;;;;;;;39.80;23.40;;;;;;;-0.28;100.00;98497.47;105649;1256;82560;-60
2024/01/18 11:06:58;;;;;;;41.30;24.60;;;;;;;-0.27;100.00;98499.35;105389;1257;72042;-59
2024/01/18 11:09:29;;;;;;;42.80;24.00;;;;;;;-0.29;100.00;98507.27;105424;1257;69231;-59
2024/01/18 11:11:58;;;;;;;40.40;23.80;;;;;;;-0.30;100.00;98507.48;105423;1257;69080;-59